createdAt,value
2023-02-08T00:00:06.870Z,14.53
2023-02-08T00:02:35.154Z,12.93
2023-02-08T00:05:03.730Z,14.03
2023-02-08T00:07:31.785Z,13.23
2023-02-08T00:10:00.798Z,13.10
2023-02-08T00:12:29.301Z,13.90
2023-02-08T00:14:57.696Z,13.67
2023-02-08T00:17:27.155Z,14.00
2023-02-08T00:19:56.932Z,13.20
2023-02-08T00:22:26.468Z,13.93
2023-02-08T00:24:54.495Z,14.47
2023-02-08T00:27:26.817Z,14.07
2023-02-08T00:29:57.349Z,13.40
2023-02-08T00:32:28.693Z,14.07
2023-02-08T00:34:56.623Z,13.50
2023-02-08T00:37:24.954Z,13.83
2023-02-08T00:39:54.310Z,13.77
2023-02-08T00:42:26.844Z,13.83
2023-02-08T00:44:54.792Z,14.10
2023-02-08T00:47:24.837Z,13.37
2023-02-08T00:49:55.248Z,13.00
2023-02-08T00:52:27.567Z,13.87
2023-02-08T00:54:58.269Z,14.40
2023-02-08T00:57:37.062Z,13.53
2023-02-08T01:00:07.147Z,14.80
2023-02-08T01:02:35.395Z,13.97
2023-02-08T01:05:05.369Z,14.20
2023-02-08T01:07:33.752Z,13.73
2023-02-08T01:10:02.255Z,13.87
2023-02-08T01:12:30.168Z,14.23
2023-02-08T01:14:58.458Z,14.87
2023-02-08T01:17:27.357Z,14.63
2023-02-08T01:19:55.664Z,12.67
2023-02-08T01:22:27.771Z,13.63
2023-02-08T01:24:56.395Z,13.50
2023-02-08T01:27:27.938Z,13.07
2023-02-08T01:29:58.791Z,13.13
2023-02-08T01:32:27.359Z,13.67
2023-02-08T01:34:56.962Z,14.37
2023-02-08T01:37:26.773Z,13.73
2023-02-08T01:39:54.893Z,13.93
2023-02-08T01:42:25.459Z,13.60
2023-02-08T01:45:24.570Z,13.03
2023-02-08T01:47:57.871Z,12.93
2023-02-08T01:50:33.872Z,13.37
2023-02-08T01:53:04.113Z,13.37
2023-02-08T01:55:58.222Z,13.43
2023-02-08T01:58:29.114Z,13.77
2023-02-08T02:00:57.604Z,13.90
2023-02-08T02:03:27.183Z,14.57
2023-02-08T02:06:03.293Z,13.40
2023-02-08T02:08:33.353Z,13.53
2023-02-08T02:11:01.516Z,13.27
2023-02-08T02:13:31.584Z,13.03
2023-02-08T02:15:59.817Z,13.13
2023-02-08T02:18:32.997Z,12.57
2023-02-08T02:21:18.860Z,12.20
2023-02-08T02:24:23.996Z,12.60
2023-02-08T02:27:21.222Z,13.00
2023-02-08T02:30:28.619Z,13.97
2023-02-08T02:33:09.851Z,13.20
2023-02-08T02:35:43.647Z,13.17
2023-02-08T02:38:23.005Z,12.77
2023-02-08T02:41:01.741Z,12.80
2023-02-08T02:43:41.929Z,11.63
2023-02-08T02:46:23.150Z,12.50
2023-02-08T02:49:00.843Z,12.93
2023-02-08T02:51:32.881Z,12.70
2023-02-08T02:54:07.662Z,12.80
2023-02-08T02:56:39.459Z,12.53
2023-02-08T02:59:14.441Z,12.53
2023-02-08T03:01:52.126Z,13.63
2023-02-08T03:04:54.429Z,12.27
2023-02-08T03:07:38.490Z,12.40
2023-02-08T03:10:21.253Z,12.27
2023-02-08T03:12:59.162Z,13.40
2023-02-08T03:15:36.505Z,13.33
2023-02-08T03:18:16.523Z,12.80
2023-02-08T03:20:54.984Z,12.27
2023-02-08T03:23:29.098Z,12.43
2023-02-08T03:26:08.425Z,12.50
2023-02-08T03:28:41.860Z,12.33
2023-02-08T03:31:19.692Z,13.30
2023-02-08T03:33:56.170Z,13.03
2023-02-08T03:36:31.867Z,11.70
2023-02-08T03:39:02.910Z,12.83
2023-02-08T03:41:38.231Z,13.03
2023-02-08T03:44:14.338Z,12.33
2023-02-08T03:46:47.789Z,12.87
2023-02-08T03:49:22.803Z,12.97
2023-02-08T03:51:54.114Z,12.77
2023-02-08T03:54:25.468Z,12.60
2023-02-08T03:56:58.282Z,13.60
2023-02-08T03:59:32.174Z,12.53
2023-02-08T04:02:02.426Z,12.83
2023-02-08T04:04:33.736Z,12.90
2023-02-08T04:07:03.340Z,12.93
2023-02-08T04:09:31.437Z,13.20
2023-02-08T04:11:59.794Z,13.10
2023-02-08T04:14:28.124Z,13.57
2023-02-08T04:16:56.433Z,13.13
2023-02-08T04:19:24.399Z,13.27
2023-02-08T04:21:55.546Z,13.83
2023-02-08T04:24:24.963Z,12.83
2023-02-08T04:26:54.555Z,13.40
2023-02-08T04:29:24.553Z,12.40
2023-02-08T04:31:55.450Z,13.20
2023-02-08T04:34:25.775Z,13.27
2023-02-08T04:36:56.935Z,13.80
2023-02-08T04:39:30.003Z,13.43
2023-02-08T04:41:58.081Z,12.27
2023-02-08T04:44:27.219Z,12.63
2023-02-08T04:46:55.576Z,14.03
2023-02-08T04:49:24.892Z,12.50
2023-02-08T04:51:54.420Z,13.93
2023-02-08T04:54:22.479Z,12.20
2023-02-08T04:56:52.214Z,12.20
2023-02-08T04:59:22.902Z,12.23
2023-02-08T05:01:52.464Z,12.87
2023-02-08T05:04:20.772Z,12.87
2023-02-08T05:06:49.222Z,12.90
2023-02-08T05:09:23.083Z,12.73
2023-02-08T05:11:52.766Z,13.07
2023-02-08T05:14:21.752Z,12.77
2023-02-08T05:17:10.003Z,12.03
2023-02-08T05:19:38.231Z,12.53
2023-02-08T05:22:06.211Z,12.87
2023-02-08T05:24:35.828Z,13.20
2023-02-08T05:27:06.026Z,12.47
2023-02-08T05:29:36.409Z,13.07
2023-02-08T05:32:05.160Z,12.73
2023-02-08T05:34:33.245Z,13.20
2023-02-08T05:37:01.241Z,12.73
2023-02-08T05:39:29.353Z,13.07
2023-02-08T05:41:57.353Z,12.93
2023-02-08T05:44:26.640Z,11.87
2023-02-08T05:46:54.984Z,11.93
2023-02-08T05:49:23.039Z,12.23
2023-02-08T05:51:51.224Z,11.90
2023-02-08T05:54:19.644Z,11.70
2023-02-08T05:56:47.810Z,12.50
2023-02-08T05:59:15.760Z,12.27
2023-02-08T06:01:45.143Z,12.30
2023-02-08T06:04:13.444Z,12.30
2023-02-08T06:06:41.501Z,12.07
2023-02-08T06:09:09.406Z,12.20
2023-02-08T06:11:37.672Z,11.93
2023-02-08T06:14:06.025Z,11.80
2023-02-08T06:16:34.106Z,12.63
2023-02-08T06:19:03.367Z,11.90
2023-02-08T06:21:31.380Z,12.63
2023-02-08T06:23:59.652Z,12.40
2023-02-08T06:26:27.997Z,10.90
2023-02-08T06:28:56.008Z,12.00
2023-02-08T06:31:23.954Z,11.53
2023-02-08T06:33:51.907Z,12.37
2023-02-08T06:36:21.190Z,12.30
2023-02-08T06:38:51.230Z,12.87
2023-02-08T06:41:19.364Z,12.60
2023-02-08T06:43:47.353Z,12.20
2023-02-08T06:46:15.340Z,11.97
2023-02-08T06:48:43.608Z,12.40
2023-02-08T06:51:11.548Z,11.97
2023-02-08T06:53:41.191Z,12.40
2023-02-08T06:56:09.600Z,12.27
2023-02-08T06:58:37.993Z,12.03
2023-02-08T07:01:06.321Z,12.67
2023-02-08T07:03:35.185Z,12.73
2023-02-08T07:06:05.358Z,11.93
2023-02-08T07:08:34.148Z,11.60
2023-02-08T07:11:08.030Z,13.03
2023-02-08T07:13:36.398Z,12.63
2023-02-08T07:16:04.522Z,12.17
2023-02-08T07:18:32.597Z,12.43
2023-02-08T07:21:00.754Z,13.20
2023-02-08T07:23:29.144Z,12.47
2023-02-08T07:26:00.658Z,13.40
2023-02-08T07:28:30.435Z,13.03
2023-02-08T07:30:58.770Z,11.87
2023-02-08T07:33:27.044Z,12.93
2023-02-08T07:35:55.090Z,13.13
2023-02-08T07:38:23.117Z,12.63
2023-02-08T07:40:51.132Z,13.03
2023-02-08T07:43:19.130Z,13.13
2023-02-08T07:45:49.898Z,13.17
2023-02-08T07:48:17.989Z,12.90
2023-02-08T07:50:45.961Z,14.00
2023-02-08T07:53:16.277Z,12.97
2023-02-08T07:55:46.822Z,12.37
2023-02-08T07:58:15.516Z,12.90
2023-02-08T08:00:43.807Z,12.37
2023-02-08T08:03:13.305Z,13.13
2023-02-08T08:05:41.991Z,13.30
2023-02-08T08:08:13.402Z,13.80
2023-02-08T08:10:42.317Z,13.33
2023-02-08T08:13:10.455Z,13.20
2023-02-08T08:15:39.963Z,13.53
2023-02-08T08:18:08.516Z,12.70
2023-02-08T08:20:38.046Z,12.97
2023-02-08T08:23:06.646Z,12.83
2023-02-08T08:25:34.877Z,14.10
2023-02-08T08:28:02.951Z,13.10
2023-02-08T08:30:31.563Z,13.73
2023-02-08T08:32:59.757Z,12.63
2023-02-08T08:35:27.763Z,13.20
2023-02-08T08:37:57.154Z,14.33
2023-02-08T08:40:25.336Z,13.30
2023-02-08T08:42:53.362Z,12.97
2023-02-08T08:45:21.338Z,12.93
2023-02-08T08:47:49.368Z,13.23
2023-02-08T08:50:17.434Z,13.97
2023-02-08T08:52:45.491Z,14.53
2023-02-08T08:55:15.056Z,14.03
2023-02-08T08:57:43.029Z,13.80
2023-02-08T09:00:12.838Z,13.23
2023-02-08T09:02:41.064Z,14.00
2023-02-08T09:05:09.674Z,14.07
2023-02-08T09:07:37.630Z,13.83
2023-02-08T09:10:06.209Z,13.57
2023-02-08T09:12:35.558Z,13.30
2023-02-08T09:15:03.540Z,15.07
2023-02-08T09:17:31.694Z,14.63
2023-02-08T09:19:59.615Z,14.23
2023-02-08T09:22:27.767Z,13.37
2023-02-08T09:24:55.761Z,13.40
2023-02-08T09:27:24.051Z,13.87
2023-02-08T09:29:53.383Z,14.40
2023-02-08T09:32:22.977Z,14.30
2023-02-08T09:34:51.006Z,14.80
2023-02-08T09:37:19.060Z,13.77
2023-02-08T09:39:47.071Z,14.30
2023-02-08T09:42:27.517Z,14.13
2023-02-08T09:45:15.886Z,13.80
2023-02-08T09:47:50.054Z,13.90
2023-02-08T09:50:25.773Z,14.27
2023-02-08T09:53:01.259Z,15.57
2023-02-08T09:55:35.241Z,15.30
2023-02-08T09:58:08.756Z,14.90
2023-02-08T10:00:43.111Z,14.73
2023-02-08T10:03:25.093Z,13.67
2023-02-08T10:05:53.153Z,14.50
2023-02-08T10:08:22.902Z,14.33
2023-02-08T10:10:57.004Z,13.70
2023-02-08T10:13:42.884Z,13.27
2023-02-08T10:16:25.760Z,13.30
2023-02-08T10:19:02.325Z,12.73
2023-02-08T10:21:43.532Z,11.87
2023-02-08T10:24:34.178Z,11.80
2023-02-08T10:27:11.624Z,12.20
2023-02-08T10:29:57.496Z,11.60
2023-02-08T10:32:39.088Z,11.13
2023-02-08T10:35:12.968Z,10.30
2023-02-08T10:37:43.080Z,10.67
2023-02-08T10:40:35.759Z,10.07
2023-02-08T10:43:24.975Z,9.93
2023-02-08T10:45:57.754Z,9.67
2023-02-08T10:48:36.756Z,10.03
2023-02-08T10:51:05.018Z,10.30
2023-02-08T10:53:35.085Z,9.60
2023-02-08T10:56:03.699Z,9.47
2023-02-08T10:58:31.932Z,9.77
2023-02-08T11:01:01.257Z,10.07
2023-02-08T11:03:32.764Z,10.40
2023-02-08T11:06:00.810Z,9.67
2023-02-08T11:08:29.401Z,10.70
2023-02-08T11:11:00.062Z,10.40
2023-02-08T11:13:36.537Z,10.37
2023-02-08T11:16:07.250Z,9.73
2023-02-08T11:18:39.444Z,9.63
2023-02-08T11:21:11.950Z,8.97
2023-02-08T11:23:43.452Z,9.70
2023-02-08T11:26:19.885Z,10.10
2023-02-08T11:29:00.724Z,8.47
2023-02-08T11:31:29.725Z,11.13
2023-02-08T11:34:04.002Z,9.23
2023-02-08T11:36:33.975Z,9.03
2023-02-08T11:39:03.969Z,9.40
2023-02-08T11:41:32.263Z,9.50
2023-02-08T11:44:04.374Z,9.93
2023-02-08T11:46:35.483Z,9.53
2023-02-08T11:49:05.463Z,8.90
2023-02-08T11:51:36.374Z,9.30
2023-02-08T11:54:05.556Z,9.03
2023-02-08T11:56:35.420Z,9.03
2023-02-08T11:59:07.839Z,8.97
2023-02-08T12:01:37.775Z,9.47
2023-02-08T12:04:09.576Z,8.30
2023-02-08T12:07:13.724Z,8.57
2023-02-08T12:10:04.491Z,8.80
2023-02-08T12:12:43.864Z,8.20
2023-02-08T12:15:23.671Z,8.33
2023-02-08T12:18:08.388Z,8.87
2023-02-08T12:20:44.078Z,9.70
2023-02-08T12:23:46.459Z,9.63
2023-02-08T12:26:21.104Z,9.50
2023-02-08T12:29:07.655Z,9.20
2023-02-08T12:31:48.628Z,8.20
2023-02-08T12:34:22.644Z,8.20
2023-02-08T12:37:32.010Z,8.47
2023-02-08T12:40:25.561Z,8.97
2023-02-08T12:43:05.118Z,7.60
2023-02-08T12:45:52.259Z,7.90
2023-02-08T12:48:41.521Z,7.63
2023-02-08T12:51:19.935Z,7.87
2023-02-08T12:53:55.052Z,7.53
2023-02-08T12:56:26.436Z,7.60
2023-02-08T12:59:08.205Z,7.33
2023-02-08T13:01:45.998Z,7.33
2023-02-08T13:04:20.384Z,7.60
2023-02-08T13:06:52.184Z,7.23
2023-02-08T13:09:37.060Z,7.37
2023-02-08T13:12:09.428Z,7.50
2023-02-08T13:14:41.053Z,7.80
2023-02-08T13:17:17.866Z,8.40
2023-02-08T13:20:00.187Z,6.93
2023-02-08T13:22:32.334Z,8.00
2023-02-08T13:25:08.579Z,7.40
2023-02-08T13:27:36.995Z,7.30
2023-02-08T13:30:06.413Z,7.00
2023-02-08T13:32:43.849Z,8.07
2023-02-08T13:35:17.300Z,7.90
2023-02-08T13:37:52.702Z,7.47
2023-02-08T13:40:28.525Z,7.17
2023-02-08T13:43:02.096Z,8.00
2023-02-08T13:45:34.275Z,7.80
2023-02-08T13:48:03.928Z,7.80
2023-02-08T13:50:47.890Z,7.13
2023-02-08T13:53:17.354Z,7.43
2023-02-08T13:55:59.186Z,8.23
2023-02-08T13:58:39.629Z,7.03
2023-02-08T14:01:21.673Z,8.50
2023-02-08T14:04:31.923Z,7.33
2023-02-08T14:07:24.876Z,7.80
2023-02-08T14:10:08.824Z,7.17
2023-02-08T14:12:43.628Z,7.70
2023-02-08T14:15:45.090Z,7.70
2023-02-08T14:18:24.986Z,7.67
2023-02-08T14:21:26.707Z,7.57
2023-02-08T14:24:02.135Z,7.50
2023-02-08T14:26:31.046Z,8.30
2023-02-08T14:29:02.659Z,8.03
2023-02-08T14:31:41.864Z,7.57
2023-02-08T14:34:25.379Z,8.30
2023-02-08T14:37:06.158Z,7.67
2023-02-08T14:39:35.615Z,7.33
2023-02-08T14:42:07.211Z,7.83
2023-02-08T14:45:02.093Z,8.07
2023-02-08T14:48:20.084Z,8.10
2023-02-08T14:51:05.451Z,7.93
2023-02-08T14:53:43.841Z,7.77
2023-02-08T14:56:19.934Z,7.83
2023-02-08T14:58:51.933Z,7.83
2023-02-08T15:01:23.611Z,8.60
2023-02-08T15:03:57.041Z,7.80
2023-02-08T15:07:02.053Z,7.67
2023-02-08T15:09:32.277Z,7.37
2023-02-08T15:12:03.234Z,7.10
2023-02-08T15:14:34.666Z,7.70
2023-02-08T15:17:04.481Z,7.13
2023-02-08T15:19:35.304Z,7.63
2023-02-08T15:22:20.809Z,7.30
2023-02-08T15:24:52.637Z,7.33
2023-02-08T15:27:23.067Z,7.10
2023-02-08T15:29:51.260Z,6.83
2023-02-08T15:32:23.466Z,7.27
2023-02-08T15:34:55.672Z,6.33
2023-02-08T15:37:24.321Z,6.70
2023-02-08T15:39:55.150Z,6.50
2023-02-08T15:42:25.684Z,6.43
2023-02-08T15:44:54.350Z,5.97
2023-02-08T15:47:28.751Z,6.50
2023-02-08T15:49:57.949Z,6.40
2023-02-08T15:52:29.500Z,6.70
2023-02-08T15:54:57.705Z,6.67
2023-02-08T15:57:36.352Z,6.30
2023-02-08T16:00:14.055Z,7.10
2023-02-08T16:02:44.239Z,6.63
2023-02-08T16:05:20.121Z,6.93
2023-02-08T16:07:48.777Z,6.67
2023-02-08T16:10:26.356Z,7.27
2023-02-08T16:12:58.896Z,7.20
2023-02-08T16:15:42.810Z,6.57
2023-02-08T16:18:36.078Z,7.27
2023-02-08T16:21:06.112Z,7.60
2023-02-08T16:23:35.566Z,7.33
2023-02-08T16:26:19.713Z,7.30
2023-02-08T16:28:58.463Z,7.03
2023-02-08T16:31:30.159Z,6.90
2023-02-08T16:34:01.554Z,7.57
2023-02-08T16:36:34.913Z,7.13
2023-02-08T16:39:39.219Z,7.90
2023-02-08T16:42:26.615Z,8.10
2023-02-08T16:45:02.676Z,8.30
2023-02-08T16:47:37.443Z,8.03
2023-02-08T16:50:07.839Z,7.47
2023-02-08T16:52:35.943Z,8.33
2023-02-08T16:55:04.398Z,8.10
2023-02-08T16:57:43.184Z,8.63
2023-02-08T17:00:17.752Z,8.40
2023-02-08T17:02:46.188Z,8.53
2023-02-08T17:05:16.410Z,8.73
2023-02-08T17:07:44.651Z,7.90
2023-02-08T17:10:19.959Z,8.70
2023-02-08T17:12:48.065Z,8.03
2023-02-08T17:15:16.651Z,7.70
2023-02-08T17:17:47.048Z,8.00
2023-02-08T17:20:22.719Z,7.37
2023-02-08T17:22:51.481Z,8.20
2023-02-08T17:25:22.600Z,8.20
2023-02-08T17:27:55.070Z,7.40
2023-02-08T17:30:26.194Z,8.87
2023-02-08T17:32:56.144Z,8.90
2023-02-08T17:35:26.259Z,9.50
2023-02-08T17:37:54.394Z,9.07
2023-02-08T17:40:24.436Z,8.00
2023-02-08T17:42:53.202Z,8.63
2023-02-08T17:45:21.423Z,8.03
2023-02-08T17:47:49.661Z,8.27
2023-02-08T17:50:19.342Z,7.80
2023-02-08T17:52:50.168Z,9.03
2023-02-08T17:55:19.091Z,8.23
2023-02-08T17:57:47.875Z,7.13
2023-02-08T18:00:18.131Z,8.07
2023-02-08T18:02:47.714Z,7.53
2023-02-08T18:05:16.409Z,7.53
2023-02-08T18:07:44.644Z,7.40
2023-02-08T18:10:16.158Z,8.07
2023-02-08T18:12:44.476Z,7.23
2023-02-08T18:15:15.981Z,7.67
2023-02-08T18:17:44.800Z,8.07
2023-02-08T18:20:15.197Z,8.50
2023-02-08T18:22:43.796Z,7.67
2023-02-08T18:25:14.615Z,7.87
2023-02-08T18:27:42.693Z,8.27
2023-02-08T18:30:12.294Z,8.03
2023-02-08T18:32:40.746Z,7.27
2023-02-08T18:35:09.001Z,8.00
2023-02-08T18:37:37.774Z,8.23
2023-02-08T18:40:07.890Z,7.90
2023-02-08T18:42:37.403Z,9.87
2023-02-08T18:45:05.584Z,8.87
2023-02-08T18:47:33.686Z,9.17
2023-02-08T18:50:01.693Z,9.17
2023-02-08T18:52:31.519Z,8.93
2023-02-08T18:54:59.891Z,8.50
2023-02-08T18:57:27.928Z,9.17
2023-02-08T18:59:57.345Z,9.47
2023-02-08T19:02:26.603Z,9.53
2023-02-08T19:04:56.237Z,13.40
2023-02-08T19:07:24.350Z,11.00
2023-02-08T19:09:54.141Z,11.47
2023-02-08T19:12:22.286Z,11.30
2023-02-08T19:14:51.775Z,10.00
2023-02-08T19:17:21.349Z,10.80
2023-02-08T19:19:49.582Z,10.90
2023-02-08T19:22:21.393Z,10.63
2023-02-08T19:24:49.796Z,12.07
2023-02-08T19:27:18.383Z,11.20
2023-02-08T19:29:46.579Z,10.80
2023-02-08T19:32:14.716Z,10.93
2023-02-08T19:34:44.167Z,11.63
2023-02-08T19:37:33.166Z,11.00
2023-02-08T19:40:01.158Z,10.47
2023-02-08T19:42:30.858Z,11.77
2023-02-08T19:44:58.908Z,11.33
2023-02-08T19:47:48.424Z,11.87
2023-02-08T19:50:17.410Z,11.27
2023-02-08T19:52:45.663Z,11.67
2023-02-08T19:55:14.388Z,11.07
2023-02-08T19:57:42.515Z,11.33
2023-02-08T20:00:23.038Z,10.77
2023-02-08T20:02:52.010Z,9.70
2023-02-08T20:05:21.875Z,9.10
2023-02-08T20:07:52.065Z,9.20
2023-02-08T20:10:21.737Z,8.50
2023-02-08T20:12:49.804Z,8.00
2023-02-08T20:15:18.668Z,6.43
2023-02-08T20:17:48.423Z,6.83
2023-02-08T20:20:20.042Z,7.33
2023-02-08T20:23:21.758Z,7.00
2023-02-08T20:25:51.623Z,6.97
2023-02-08T20:28:20.518Z,7.00
2023-02-08T20:30:48.755Z,7.50
2023-02-08T20:33:17.077Z,6.53
2023-02-08T20:35:45.828Z,6.27
2023-02-08T20:38:15.470Z,6.30
2023-02-08T20:40:44.048Z,5.83
2023-02-08T20:43:12.427Z,5.87
2023-02-08T20:45:42.015Z,6.00
2023-02-08T20:48:10.648Z,6.37
2023-02-08T20:50:38.755Z,6.10
2023-02-08T20:53:10.666Z,5.67
2023-02-08T20:55:44.029Z,6.07
2023-02-08T20:58:13.826Z,5.63
2023-02-08T21:00:44.007Z,6.30
2023-02-08T21:03:15.417Z,5.47
2023-02-08T21:05:44.027Z,5.37
2023-02-08T21:08:32.871Z,6.00
2023-02-08T21:11:04.617Z,5.47
2023-02-08T21:13:32.910Z,6.13
2023-02-08T21:16:04.780Z,5.70
2023-02-08T21:18:32.796Z,5.73
2023-02-08T21:21:01.162Z,5.73
2023-02-08T21:23:29.303Z,5.27
2023-02-08T21:25:57.591Z,5.23
2023-02-08T21:28:27.022Z,5.27
2023-02-08T21:30:59.021Z,5.33
2023-02-08T21:33:27.843Z,5.77
2023-02-08T21:35:56.199Z,5.40
2023-02-08T21:38:24.485Z,5.77
2023-02-08T21:40:52.702Z,5.83
2023-02-08T21:43:20.934Z,6.00
2023-02-08T21:45:50.353Z,5.77
2023-02-08T21:48:18.323Z,6.53
2023-02-08T21:51:03.820Z,5.53
2023-02-08T21:53:49.354Z,6.47
2023-02-08T21:56:17.523Z,6.43
2023-02-08T21:58:45.889Z,5.87
2023-02-08T22:01:15.857Z,6.03
2023-02-08T22:03:44.164Z,6.87
2023-02-08T22:06:12.152Z,6.30
2023-02-08T22:08:40.218Z,6.17
2023-02-08T22:11:09.002Z,6.80
2023-02-08T22:13:37.024Z,6.50
2023-02-08T22:16:09.206Z,6.33
2023-02-08T22:18:41.407Z,6.80
2023-02-08T22:21:09.908Z,6.10
2023-02-08T22:23:37.950Z,6.13
2023-02-08T22:26:08.740Z,6.87
2023-02-08T22:28:37.236Z,7.07
2023-02-08T22:31:05.767Z,6.53
2023-02-08T22:33:33.788Z,6.70
2023-02-08T22:36:07.438Z,6.63
2023-02-08T22:38:35.547Z,7.30
2023-02-08T22:41:03.733Z,7.03
2023-02-08T22:43:33.297Z,6.70
2023-02-08T22:46:02.219Z,6.97
2023-02-08T22:48:30.283Z,6.83
2023-02-08T22:50:58.296Z,7.43
2023-02-08T22:53:27.926Z,7.83
2023-02-08T22:55:57.359Z,7.00
2023-02-08T22:58:25.791Z,7.07
2023-02-08T23:00:53.929Z,7.27
2023-02-08T23:03:22.063Z,6.70
2023-02-08T23:05:51.977Z,7.17
2023-02-08T23:08:22.731Z,6.83
2023-02-08T23:10:59.488Z,7.20
2023-02-08T23:13:27.670Z,6.90
2023-02-08T23:15:55.699Z,6.53
2023-02-08T23:18:24.591Z,6.83
2023-02-08T23:20:53.656Z,7.07
2023-02-08T23:23:21.636Z,7.60
2023-02-08T23:25:50.982Z,6.73
2023-02-08T23:28:19.305Z,6.57
2023-02-08T23:30:47.522Z,7.43
2023-02-08T23:33:15.670Z,7.00
2023-02-08T23:35:43.686Z,7.23
2023-02-08T23:38:12.109Z,6.87
2023-02-08T23:40:41.911Z,7.23
2023-02-08T23:43:11.232Z,6.80
2023-02-08T23:45:39.502Z,6.70
2023-02-08T23:48:07.516Z,6.70
2023-02-08T23:50:35.530Z,7.23
2023-02-08T23:53:03.663Z,7.47
2023-02-08T23:55:31.746Z,7.63
2023-02-08T23:57:59.734Z,7.50
